createdAt,value
2018-09-03T00:00:24.180Z,99.90
2018-09-03T00:02:51.912Z,99.90
2018-09-03T00:05:19.776Z,99.90
2018-09-03T00:07:47.723Z,99.90
2018-09-03T00:10:15.512Z,99.90
2018-09-03T00:12:43.239Z,99.90
2018-09-03T00:15:11.135Z,99.90
2018-09-03T00:17:38.776Z,99.90
2018-09-03T00:20:06.428Z,99.90
2018-09-03T00:22:34.102Z,99.90
2018-09-03T00:25:02.059Z,99.90
2018-09-03T00:27:29.866Z,99.90
2018-09-03T00:29:57.464Z,99.90
2018-09-03T00:32:30.820Z,99.90
2018-09-03T00:35:04.257Z,99.90
2018-09-03T00:37:37.763Z,99.90
2018-09-03T00:40:11.314Z,99.90
2018-09-03T00:42:44.663Z,99.90
2018-09-03T00:45:17.900Z,99.90
2018-09-03T00:47:45.659Z,99.90
2018-09-03T00:50:13.737Z,99.90
2018-09-03T00:52:41.357Z,99.90
2018-09-03T00:55:09.066Z,99.90
2018-09-03T00:57:36.784Z,99.90
2018-09-03T01:00:05.125Z,99.90
2018-09-03T01:02:32.864Z,99.90
2018-09-03T01:05:00.456Z,99.90
2018-09-03T01:07:28.228Z,99.90
2018-09-03T01:09:55.939Z,99.90
2018-09-03T01:12:23.858Z,99.90
2018-09-03T01:14:51.589Z,99.90
2018-09-03T01:17:19.568Z,99.90
2018-09-03T01:19:47.251Z,99.90
2018-09-03T01:22:15.126Z,99.90
2018-09-03T01:24:42.719Z,99.90
2018-09-03T01:27:11.437Z,99.90
2018-09-03T01:29:39.327Z,99.90
2018-09-03T01:32:07.842Z,99.90
2018-09-03T01:34:35.758Z,99.90
2018-09-03T01:37:03.306Z,99.90
2018-09-03T01:39:30.925Z,99.90
2018-09-03T01:41:58.436Z,99.90
2018-09-03T01:44:26.125Z,99.90
2018-09-03T01:46:53.724Z,99.90
2018-09-03T01:49:21.399Z,99.90
2018-09-03T01:51:48.943Z,99.90
2018-09-03T01:54:16.533Z,99.90
2018-09-03T01:56:45.155Z,99.90
2018-09-03T01:59:12.757Z,99.90
2018-09-03T02:01:40.313Z,99.90
2018-09-03T02:04:07.826Z,99.90
2018-09-03T02:06:35.660Z,99.90
2018-09-03T02:09:05.792Z,99.90
2018-09-03T02:11:33.399Z,99.90
2018-09-03T02:14:01.899Z,99.90
2018-09-03T02:16:29.635Z,99.90
2018-09-03T02:18:57.327Z,99.90
2018-09-03T02:21:24.893Z,99.90
2018-09-03T02:23:52.494Z,99.90
2018-09-03T02:26:20.217Z,99.90
2018-09-03T02:28:47.930Z,99.90
2018-09-03T02:31:15.546Z,99.90
2018-09-03T02:33:45.122Z,99.90
2018-09-03T02:36:12.664Z,99.90
2018-09-03T02:38:40.285Z,99.90
2018-09-03T02:41:07.877Z,99.90
2018-09-03T02:43:35.565Z,99.90
2018-09-03T02:46:03.139Z,99.90
2018-09-03T02:48:30.662Z,99.90
2018-09-03T02:50:58.323Z,99.90
2018-09-03T02:53:26.086Z,99.90
2018-09-03T02:55:53.773Z,99.90
2018-09-03T02:58:21.342Z,99.90
2018-09-03T03:00:49.099Z,99.90
2018-09-03T03:03:16.777Z,99.90
2018-09-03T03:05:44.359Z,99.90
2018-09-03T03:08:11.925Z,99.90
2018-09-03T03:10:39.562Z,99.90
2018-09-03T03:13:07.071Z,99.90
2018-09-03T03:15:34.709Z,99.90
2018-09-03T03:18:02.513Z,99.90
2018-09-03T03:20:30.926Z,99.90
2018-09-03T03:22:58.509Z,99.90
2018-09-03T03:25:26.163Z,99.90
2018-09-03T03:27:53.877Z,99.90
2018-09-03T03:30:21.693Z,99.90
2018-09-03T03:32:49.471Z,99.90
2018-09-03T03:35:17.353Z,99.90
2018-09-03T03:37:47.778Z,99.90
2018-09-03T03:40:16.246Z,99.90
2018-09-03T03:42:43.972Z,99.90
2018-09-03T03:45:11.771Z,99.90
2018-09-03T03:47:39.857Z,99.90
2018-09-03T03:50:07.808Z,99.90
2018-09-03T03:52:35.550Z,99.90
2018-09-03T03:55:03.685Z,99.90
2018-09-03T03:57:31.205Z,99.90
2018-09-03T03:59:59.069Z,99.90
2018-09-03T04:02:26.775Z,99.90
2018-09-03T04:04:54.341Z,99.90
2018-09-03T04:07:22.115Z,99.90
2018-09-03T04:09:49.912Z,99.90
2018-09-03T04:12:17.475Z,99.90
2018-09-03T04:14:44.982Z,99.90
2018-09-03T04:17:13.029Z,99.90
2018-09-03T04:19:40.577Z,99.90
2018-09-03T04:22:08.246Z,99.90
2018-09-03T04:24:35.879Z,99.90
2018-09-03T04:27:03.626Z,99.90
2018-09-03T04:29:31.373Z,99.90
2018-09-03T04:31:59.083Z,99.90
2018-09-03T04:34:26.890Z,99.90
2018-09-03T04:36:54.728Z,99.90
2018-09-03T04:39:22.326Z,99.90
2018-09-03T04:41:49.866Z,99.90
2018-09-03T04:44:17.670Z,99.90
2018-09-03T04:46:45.235Z,99.90
2018-09-03T04:49:12.784Z,99.90
2018-09-03T04:51:40.487Z,99.90
2018-09-03T04:54:08.052Z,99.90
2018-09-03T04:56:35.850Z,99.90
2018-09-03T04:59:03.671Z,99.90
2018-09-03T05:01:31.450Z,99.90
2018-09-03T05:03:59.252Z,99.90
2018-09-03T05:06:26.789Z,99.90
2018-09-03T05:08:54.409Z,99.90
2018-09-03T05:11:22.152Z,99.90
2018-09-03T05:13:49.791Z,99.90
2018-09-03T05:16:17.423Z,99.90
2018-09-03T05:18:45.154Z,99.90
2018-09-03T05:21:12.647Z,99.90
2018-09-03T05:23:40.382Z,99.90
2018-09-03T05:26:08.103Z,99.90
2018-09-03T05:28:35.834Z,99.90
2018-09-03T05:31:03.492Z,99.90
2018-09-03T05:33:31.165Z,99.90
2018-09-03T05:35:58.739Z,99.90
2018-09-03T05:38:26.485Z,99.90
2018-09-03T05:40:54.257Z,99.90
2018-09-03T05:43:22.159Z,99.90
2018-09-03T05:45:49.590Z,99.90
2018-09-03T05:48:17.414Z,99.90
2018-09-03T05:50:45.463Z,99.90
2018-09-03T05:53:12.973Z,99.90
2018-09-03T05:55:40.756Z,99.90
2018-09-03T05:58:08.540Z,99.90
2018-09-03T06:00:36.116Z,99.90
2018-09-03T06:03:03.751Z,99.90
2018-09-03T06:05:35.024Z,99.90
2018-09-03T06:08:02.886Z,99.90
2018-09-03T06:10:30.707Z,99.90
2018-09-03T06:12:58.266Z,99.90
2018-09-03T06:15:26.049Z,99.90
2018-09-03T06:17:53.883Z,99.90
2018-09-03T06:20:22.737Z,99.90
2018-09-03T06:22:50.317Z,99.90
2018-09-03T06:25:17.949Z,99.90
2018-09-03T06:27:45.669Z,99.90
2018-09-03T06:30:13.244Z,99.90
2018-09-03T06:32:42.856Z,99.90
2018-09-03T06:35:10.386Z,99.90
2018-09-03T06:37:37.994Z,99.90
2018-09-03T06:40:06.483Z,99.90
2018-09-03T06:42:34.242Z,99.90
2018-09-03T06:45:01.959Z,99.90
2018-09-03T06:47:29.633Z,99.90
2018-09-03T06:49:57.333Z,99.90
2018-09-03T06:52:24.958Z,99.90
2018-09-03T06:54:52.726Z,99.90
2018-09-03T06:57:20.264Z,99.90
2018-09-03T06:59:48.187Z,99.90
2018-09-03T07:02:16.010Z,99.90
2018-09-03T07:04:43.547Z,99.90
2018-09-03T07:07:11.388Z,99.90
2018-09-03T07:09:38.997Z,99.90
2018-09-03T07:12:06.814Z,99.90
2018-09-03T07:14:34.483Z,99.90
2018-09-03T07:17:02.397Z,99.90
2018-09-03T07:19:30.090Z,99.90
2018-09-03T07:21:58.066Z,99.90
2018-09-03T07:24:25.790Z,99.90
2018-09-03T07:26:53.487Z,99.90
2018-09-03T07:29:21.393Z,99.90
2018-09-03T07:31:49.022Z,99.90
2018-09-03T07:34:16.607Z,99.90
2018-09-03T07:36:44.289Z,99.90
2018-09-03T07:39:11.814Z,99.90
2018-09-03T07:41:40.352Z,99.90
2018-09-03T07:44:07.904Z,99.90
2018-09-03T07:46:35.511Z,99.90
2018-09-03T07:49:03.162Z,99.90
2018-09-03T07:51:30.727Z,99.90
2018-09-03T07:53:58.538Z,99.90
2018-09-03T07:56:26.187Z,99.90
2018-09-03T07:58:53.976Z,99.90
2018-09-03T08:01:21.575Z,99.90
2018-09-03T08:03:49.234Z,99.90
2018-09-03T08:06:17.066Z,99.90
2018-09-03T08:08:44.812Z,99.90
2018-09-03T08:11:12.397Z,99.90
2018-09-03T08:13:41.673Z,99.90
2018-09-03T08:16:10.111Z,99.90
2018-09-03T08:18:38.146Z,99.90
2018-09-03T08:21:05.857Z,99.90
2018-09-03T08:23:33.636Z,99.90
2018-09-03T08:26:01.523Z,99.90
2018-09-03T08:28:29.209Z,99.90
2018-09-03T08:30:56.909Z,99.90
2018-09-03T08:33:24.482Z,99.90
2018-09-03T08:35:52.122Z,99.90
2018-09-03T08:38:19.710Z,99.90
2018-09-03T08:40:47.257Z,99.90
2018-09-03T08:43:14.973Z,99.90
2018-09-03T08:45:42.526Z,99.90
2018-09-03T08:48:10.124Z,99.90
2018-09-03T08:50:38.014Z,99.90
2018-09-03T08:53:05.937Z,99.90
2018-09-03T08:55:33.646Z,99.90
2018-09-03T08:58:01.649Z,99.90
2018-09-03T09:00:29.202Z,99.90
2018-09-03T09:02:57.776Z,99.90
2018-09-03T09:05:25.311Z,99.90
2018-09-03T09:07:53.005Z,99.90
2018-09-03T09:10:20.561Z,99.90
2018-09-03T09:12:48.292Z,99.90
2018-09-03T09:15:16.120Z,99.90
2018-09-03T09:17:43.854Z,99.90
2018-09-03T09:20:11.385Z,99.90
2018-09-03T09:22:39.063Z,99.90
2018-09-03T09:25:06.692Z,99.90
2018-09-03T09:27:34.409Z,99.90
2018-09-03T09:30:02.188Z,99.90
2018-09-03T09:32:29.706Z,99.90
2018-09-03T09:34:57.323Z,99.90
2018-09-03T09:37:24.958Z,99.90
2018-09-03T09:39:52.650Z,99.90
2018-09-03T09:42:20.274Z,99.90
2018-09-03T09:44:47.819Z,99.90
2018-09-03T09:47:15.862Z,99.90
2018-09-03T09:49:43.553Z,99.90
2018-09-03T09:52:11.333Z,99.90
2018-09-03T09:54:42.719Z,99.90
2018-09-03T09:57:10.443Z,99.90
2018-09-03T09:59:37.943Z,99.90
2018-09-03T10:02:05.693Z,99.90
2018-09-03T10:04:33.329Z,99.90
2018-09-03T10:07:01.094Z,99.90
2018-09-03T10:09:28.829Z,99.90
2018-09-03T10:11:56.388Z,99.90
2018-09-03T10:14:26.141Z,99.90
2018-09-03T10:16:53.953Z,99.90
2018-09-03T10:19:21.559Z,99.90
2018-09-03T10:21:49.214Z,99.90
2018-09-03T10:24:17.148Z,99.90
2018-09-03T10:26:44.753Z,99.90
2018-09-03T10:29:12.522Z,99.90
2018-09-03T10:31:40.117Z,99.90
2018-09-03T10:34:07.824Z,99.90
2018-09-03T10:36:35.485Z,99.90
2018-09-03T10:39:05.846Z,99.90
2018-09-03T10:41:33.742Z,99.90
2018-09-03T10:44:01.435Z,99.90
2018-09-03T10:46:28.934Z,99.90
2018-09-03T10:48:56.649Z,99.90
2018-09-03T10:51:24.267Z,99.90
2018-09-03T10:53:52.010Z,99.90
2018-09-03T10:56:19.819Z,99.90
2018-09-03T10:58:47.593Z,99.90
2018-09-03T11:01:15.309Z,99.90
2018-09-03T11:03:43.022Z,99.90
2018-09-03T11:06:10.653Z,99.90
2018-09-03T11:08:38.361Z,99.90
2018-09-03T11:11:06.057Z,99.90
2018-09-03T11:13:33.671Z,99.90
2018-09-03T11:16:01.249Z,99.90
2018-09-03T11:18:30.073Z,99.90
2018-09-03T11:20:57.968Z,99.90
2018-09-03T11:23:25.566Z,99.90
2018-09-03T11:25:53.091Z,99.90
2018-09-03T11:28:20.666Z,99.90
2018-09-03T11:30:48.280Z,99.90
2018-09-03T11:33:15.938Z,99.90
2018-09-03T11:35:43.619Z,99.90
2018-09-03T11:38:11.237Z,99.90
2018-09-03T11:40:38.831Z,99.90
2018-09-03T11:43:06.408Z,99.90
2018-09-03T11:45:35.043Z,99.90
2018-09-03T11:48:02.711Z,99.90
2018-09-03T11:50:30.391Z,99.90
2018-09-03T11:52:57.895Z,99.90
2018-09-03T11:55:28.881Z,99.90
2018-09-03T11:57:56.501Z,99.90
2018-09-03T12:00:26.142Z,99.90
2018-09-03T12:02:53.837Z,99.90
2018-09-03T12:05:21.377Z,99.90
2018-09-03T12:07:49.105Z,99.90
2018-09-03T12:10:16.711Z,99.90
2018-09-03T12:12:44.405Z,99.90
2018-09-03T12:16:15.504Z,99.90
2018-09-03T12:18:44.006Z,99.90
2018-09-03T12:21:12.571Z,99.90
2018-09-03T12:23:40.728Z,99.90
2018-09-03T12:26:08.723Z,99.90
2018-09-03T12:28:36.273Z,99.90
2018-09-03T12:31:04.869Z,99.90
2018-09-03T12:33:32.950Z,99.90
2018-09-03T12:36:00.930Z,99.90
2018-09-03T12:38:28.605Z,99.90
2018-09-03T12:40:56.238Z,99.90
2018-09-03T12:43:24.115Z,99.90
2018-09-03T12:45:57.407Z,99.90
2018-09-03T12:48:24.961Z,99.90
2018-09-03T12:50:52.671Z,99.90
2018-09-03T12:53:20.411Z,99.90
2018-09-03T12:55:48.006Z,99.90
2018-09-03T12:58:15.670Z,99.90
2018-09-03T13:00:45.335Z,99.90
2018-09-03T13:03:13.849Z,99.90
2018-09-03T13:05:41.406Z,99.90
2018-09-03T13:08:08.993Z,99.90
2018-09-03T13:10:36.610Z,99.90
2018-09-03T13:13:04.605Z,99.90
2018-09-03T13:15:32.167Z,99.90
2018-09-03T13:17:59.879Z,99.90
2018-09-03T13:20:27.373Z,99.90
2018-09-03T13:22:54.880Z,99.90
2018-09-03T13:25:22.473Z,99.90
2018-09-03T13:27:50.129Z,99.90
2018-09-03T13:30:17.686Z,99.90
2018-09-03T13:32:45.300Z,99.90
2018-09-03T13:35:12.953Z,99.90
2018-09-03T13:37:40.558Z,99.90
2018-09-03T13:40:08.201Z,99.90
2018-09-03T13:42:35.842Z,99.50
2018-09-03T13:45:03.509Z,97.00
2018-09-03T13:47:31.006Z,98.10
2018-09-03T13:49:58.578Z,99.30
2018-09-03T13:52:26.478Z,97.60
2018-09-03T13:54:54.250Z,96.20
2018-09-03T13:57:22.014Z,97.00
2018-09-03T13:59:49.773Z,97.10
2018-09-03T14:02:18.315Z,96.40
2018-09-03T14:04:46.528Z,96.80
2018-09-03T14:07:14.153Z,97.50
2018-09-03T14:09:41.955Z,98.30
2018-09-03T14:12:09.826Z,98.30
2018-09-03T14:14:37.494Z,99.00
2018-09-03T14:17:05.529Z,99.70
2018-09-03T14:19:33.206Z,99.10
2018-09-03T14:22:02.718Z,99.00
2018-09-03T14:24:30.291Z,97.50
2018-09-03T14:26:57.983Z,96.50
2018-09-03T14:29:25.654Z,94.40
2018-09-03T14:31:53.216Z,95.40
2018-09-03T14:34:22.312Z,96.80
2018-09-03T14:36:52.178Z,95.70
2018-09-03T14:39:19.836Z,96.10
2018-09-03T14:41:48.671Z,96.70
2018-09-03T14:44:16.854Z,96.20
2018-09-03T14:46:44.406Z,96.20
2018-09-03T14:49:12.089Z,95.90
2018-09-03T14:51:39.841Z,95.80
2018-09-03T14:54:07.763Z,96.00
2018-09-03T14:56:35.328Z,96.80
2018-09-03T14:59:03.039Z,96.70
2018-09-03T15:01:33.975Z,96.50
2018-09-03T15:04:02.850Z,96.40
2018-09-03T15:06:34.203Z,97.60
2018-09-03T15:09:01.793Z,97.60
2018-09-03T15:11:29.556Z,98.80
2018-09-03T15:13:59.224Z,99.80
2018-09-03T15:16:29.557Z,99.90
2018-09-03T15:18:57.214Z,99.90
2018-09-03T15:21:25.087Z,99.90
2018-09-03T15:23:53.450Z,99.90
2018-09-03T15:26:27.789Z,99.90
2018-09-03T15:28:57.285Z,99.90
2018-09-03T15:31:26.339Z,99.90
2018-09-03T15:33:55.643Z,99.90
2018-09-03T15:36:24.045Z,99.90
2018-09-03T15:38:53.279Z,99.90
2018-09-03T15:41:23.395Z,99.90
2018-09-03T15:43:51.148Z,99.90
2018-09-03T15:46:21.024Z,99.90
2018-09-03T15:48:48.542Z,99.90
2018-09-03T15:51:16.218Z,99.90
2018-09-03T15:53:43.761Z,99.90
2018-09-03T15:56:11.623Z,99.90
2018-09-03T15:58:39.203Z,99.90
2018-09-03T16:01:07.002Z,99.90
2018-09-03T16:03:34.702Z,99.90
2018-09-03T16:06:02.580Z,99.90
2018-09-03T16:08:31.345Z,99.90
2018-09-03T16:10:59.037Z,99.90
2018-09-03T16:13:26.718Z,99.90
2018-09-03T16:15:55.992Z,99.90
2018-09-03T16:18:23.727Z,99.90
2018-09-03T16:20:54.696Z,99.90
2018-09-03T16:23:22.212Z,99.90
2018-09-03T16:25:49.822Z,99.90
2018-09-03T16:28:17.613Z,99.90
2018-09-03T16:30:45.279Z,99.90
2018-09-03T16:33:12.881Z,99.90
2018-09-03T16:35:40.469Z,99.90
2018-09-03T16:38:08.186Z,99.90
2018-09-03T16:40:35.840Z,99.90
2018-09-03T16:43:03.463Z,99.90
2018-09-03T16:45:31.026Z,99.90
2018-09-03T16:47:58.719Z,99.90
2018-09-03T16:50:26.307Z,99.90
2018-09-03T16:52:54.130Z,99.90
2018-09-03T16:55:22.132Z,99.90
2018-09-03T16:57:49.625Z,99.90
2018-09-03T17:00:17.462Z,99.90
2018-09-03T17:02:45.297Z,99.90
2018-09-03T17:05:13.145Z,99.90
2018-09-03T17:07:51.904Z,99.90
2018-09-03T17:10:19.843Z,99.90
2018-09-03T17:12:47.518Z,99.90
2018-09-03T17:15:15.082Z,99.90
2018-09-03T17:17:42.772Z,99.90
2018-09-03T17:20:10.613Z,99.90
2018-09-03T17:22:38.155Z,99.90
2018-09-03T17:25:06.034Z,99.90
2018-09-03T17:27:33.592Z,99.90
2018-09-03T17:30:01.259Z,99.90
2018-09-03T17:32:29.069Z,99.90
2018-09-03T17:34:57.105Z,99.90
2018-09-03T17:37:24.671Z,99.90
2018-09-03T17:39:52.269Z,99.90
2018-09-03T17:42:19.892Z,99.90
2018-09-03T17:44:47.536Z,99.90
2018-09-03T17:47:15.103Z,99.90
2018-09-03T17:49:43.822Z,99.90
2018-09-03T17:52:11.773Z,99.90
2018-09-03T17:54:39.715Z,99.90
2018-09-03T17:57:08.005Z,99.90
2018-09-03T17:59:35.655Z,99.90
2018-09-03T18:02:03.292Z,99.90
2018-09-03T18:04:31.097Z,99.90
2018-09-03T18:06:58.695Z,99.90
2018-09-03T18:09:26.309Z,99.90
2018-09-03T18:11:54.846Z,99.90
2018-09-03T18:14:22.573Z,99.90
2018-09-03T18:16:51.554Z,99.90
2018-09-03T18:19:19.510Z,99.90
2018-09-03T18:21:47.268Z,99.90
2018-09-03T18:24:14.917Z,99.90
2018-09-03T18:26:42.606Z,99.90
2018-09-03T18:29:11.075Z,99.90
2018-09-03T18:31:38.854Z,99.90
2018-09-03T18:34:07.626Z,99.90
2018-09-03T18:36:35.253Z,99.90
2018-09-03T18:39:04.198Z,99.90
2018-09-03T18:41:31.878Z,99.90
2018-09-03T18:43:59.799Z,99.90
2018-09-03T18:46:27.926Z,99.90
2018-09-03T18:48:55.705Z,99.90
2018-09-03T18:51:23.963Z,99.90
2018-09-03T18:53:51.492Z,99.90
2018-09-03T18:56:19.154Z,99.90
2018-09-03T18:58:46.951Z,99.90
2018-09-03T19:01:15.653Z,99.90
2018-09-03T19:03:44.571Z,99.90
2018-09-03T19:06:12.539Z,99.90
2018-09-03T19:08:40.149Z,99.90
2018-09-03T19:11:08.176Z,99.90
2018-09-03T19:13:37.526Z,99.90
2018-09-03T19:16:05.701Z,99.90
2018-09-03T19:18:33.415Z,99.90
2018-09-03T19:21:01.229Z,99.90
2018-09-03T19:23:28.929Z,99.90
2018-09-03T19:25:56.570Z,99.90
2018-09-03T19:28:24.389Z,99.90
2018-09-03T19:30:52.043Z,99.90
2018-09-03T19:33:19.779Z,99.90
2018-09-03T19:35:47.421Z,99.90
2018-09-03T19:38:15.130Z,99.90
2018-09-03T19:40:43.064Z,99.90
2018-09-03T19:46:08.075Z,99.90
2018-09-03T19:48:36.004Z,99.90
2018-09-03T19:51:03.756Z,99.90
2018-09-03T19:53:31.447Z,99.90
2018-09-03T19:55:59.152Z,99.90
2018-09-03T19:58:27.207Z,99.90
2018-09-03T20:00:55.110Z,99.90
2018-09-03T20:03:22.708Z,99.90
2018-09-03T20:05:50.611Z,99.90
2018-09-03T20:08:18.383Z,99.90
2018-09-03T20:10:46.090Z,99.90
2018-09-03T20:13:13.714Z,99.90
2018-09-03T20:15:41.383Z,99.90
2018-09-03T20:18:09.211Z,99.90
2018-09-03T20:20:36.870Z,99.90
2018-09-03T20:23:04.752Z,99.90
2018-09-03T20:25:32.349Z,99.90
2018-09-03T20:28:00.239Z,99.90
2018-09-03T20:30:27.900Z,99.90
2018-09-03T20:32:55.965Z,99.90
2018-09-03T20:35:23.543Z,99.90
2018-09-03T20:37:51.351Z,99.90
2018-09-03T20:40:19.128Z,99.90
2018-09-03T20:42:47.848Z,99.90
2018-09-03T20:45:15.592Z,99.90
2018-09-03T20:47:46.995Z,99.90
2018-09-03T20:50:16.563Z,99.90
2018-09-03T20:52:44.317Z,99.90
2018-09-03T20:55:12.331Z,99.90
2018-09-03T20:57:40.050Z,99.90
2018-09-03T21:00:11.275Z,99.90
2018-09-03T21:02:40.924Z,99.90
2018-09-03T21:05:08.511Z,99.90
2018-09-03T21:07:36.147Z,99.90
2018-09-03T21:10:03.867Z,99.90
2018-09-03T21:12:33.096Z,99.90
2018-09-03T21:15:00.683Z,99.90
2018-09-03T21:17:28.872Z,99.90
2018-09-03T21:19:56.391Z,99.90
2018-09-03T21:22:24.882Z,99.90
2018-09-03T21:24:52.802Z,99.90
2018-09-03T21:27:20.876Z,99.90
2018-09-03T21:29:48.724Z,99.90
2018-09-03T21:32:16.555Z,99.90
2018-09-03T21:34:44.262Z,99.90
2018-09-03T21:37:11.904Z,99.90
2018-09-03T21:39:39.550Z,99.90
2018-09-03T21:42:07.224Z,99.90
2018-09-03T21:44:34.998Z,99.90
2018-09-03T21:47:02.975Z,99.90
2018-09-03T21:49:31.821Z,99.90
2018-09-03T21:51:59.455Z,99.90
2018-09-03T21:54:32.259Z,99.90
2018-09-03T21:56:59.878Z,99.90
2018-09-03T21:59:27.555Z,99.90
2018-09-03T22:01:55.239Z,99.90
2018-09-03T22:04:22.884Z,99.90
2018-09-03T22:06:50.632Z,99.90
2018-09-03T22:09:28.126Z,99.90
2018-09-03T22:11:55.714Z,99.90
2018-09-03T22:14:23.535Z,99.90
2018-09-03T22:16:55.170Z,99.90
2018-09-03T22:19:23.761Z,99.90
2018-09-03T22:21:51.421Z,99.90
2018-09-03T22:24:22.488Z,99.90
2018-09-03T22:26:50.346Z,99.90
2018-09-03T22:29:17.995Z,99.90
2018-09-03T22:31:45.654Z,99.90
2018-09-03T22:34:13.531Z,99.90
2018-09-03T22:36:44.672Z,99.90
2018-09-03T22:39:12.519Z,99.90
2018-09-03T22:41:40.203Z,99.90
2018-09-03T22:44:07.963Z,99.90
2018-09-03T22:46:35.886Z,99.90
2018-09-03T22:49:03.569Z,99.90
2018-09-03T22:51:31.098Z,99.90
2018-09-03T22:53:58.729Z,99.90
2018-09-03T22:56:26.494Z,99.90
2018-09-03T22:58:54.302Z,99.90
2018-09-03T23:01:22.097Z,99.90
2018-09-03T23:03:49.922Z,99.90
2018-09-03T23:06:17.519Z,99.90
2018-09-03T23:08:45.299Z,99.90
2018-09-03T23:11:12.969Z,99.90
2018-09-03T23:13:40.863Z,99.90
2018-09-03T23:16:08.675Z,99.90
2018-09-03T23:18:36.484Z,99.90
2018-09-03T23:21:05.358Z,99.90
2018-09-03T23:23:32.906Z,99.90
2018-09-03T23:26:00.809Z,99.90
2018-09-03T23:28:28.446Z,99.90
2018-09-03T23:30:56.075Z,99.90
2018-09-03T23:33:23.934Z,99.90
2018-09-03T23:35:51.562Z,99.90
2018-09-03T23:38:19.339Z,99.90
2018-09-03T23:40:46.964Z,99.90
2018-09-03T23:43:14.594Z,99.90
2018-09-03T23:45:42.351Z,99.90
2018-09-03T23:48:10.667Z,99.90
2018-09-03T23:50:38.304Z,99.90
2018-09-03T23:53:05.902Z,99.90
2018-09-03T23:55:33.878Z,99.90
2018-09-03T23:58:01.702Z,99.90
